createdAt,value
2018-12-07T00:00:22.191Z,10.03
2018-12-07T00:02:48.478Z,10.01
2018-12-07T00:05:14.770Z,10.00
2018-12-07T00:07:41.066Z,9.99
2018-12-07T00:10:07.365Z,9.96
2018-12-07T00:12:33.647Z,9.90
2018-12-07T00:14:59.935Z,9.84
2018-12-07T00:17:26.232Z,9.77
2018-12-07T00:19:52.525Z,9.73
2018-12-07T00:22:18.811Z,9.93
2018-12-07T00:24:45.110Z,10.26
2018-12-07T00:27:11.408Z,10.30
2018-12-07T00:29:37.701Z,10.28
2018-12-07T00:32:04.019Z,10.28
2018-12-07T00:34:30.412Z,10.27
2018-12-07T00:36:56.619Z,10.22
2018-12-07T00:39:22.923Z,10.23
2018-12-07T00:41:49.212Z,10.22
2018-12-07T00:44:15.597Z,10.19
2018-12-07T00:46:41.901Z,10.12
2018-12-07T00:49:08.245Z,10.12
2018-12-07T00:51:34.561Z,10.10
2018-12-07T00:54:00.855Z,10.07
2018-12-07T00:56:27.199Z,9.96
2018-12-07T00:58:53.488Z,9.74
2018-12-07T01:01:19.776Z,9.62
2018-12-07T01:03:46.072Z,9.58
2018-12-07T01:06:12.400Z,9.67
2018-12-07T01:08:38.696Z,9.76
2018-12-07T01:11:04.992Z,9.84
2018-12-07T01:13:31.299Z,9.88
2018-12-07T01:15:57.568Z,9.90
2018-12-07T01:18:23.883Z,9.88
2018-12-07T01:20:50.153Z,9.88
2018-12-07T01:23:16.454Z,9.87
2018-12-07T01:25:42.747Z,9.84
2018-12-07T01:28:09.051Z,9.82
2018-12-07T01:30:35.326Z,9.78
2018-12-07T01:33:01.624Z,9.80
2018-12-07T01:35:27.958Z,9.78
2018-12-07T01:37:54.254Z,9.75
2018-12-07T01:40:20.542Z,9.74
2018-12-07T01:42:46.838Z,9.61
2018-12-07T01:45:13.116Z,9.42
2018-12-07T01:47:39.409Z,9.29
2018-12-07T01:50:05.699Z,9.26
2018-12-07T01:52:31.982Z,9.35
2018-12-07T01:54:58.286Z,9.43
2018-12-07T01:57:24.569Z,9.50
2018-12-07T01:59:50.911Z,9.53
2018-12-07T02:02:17.209Z,9.52
2018-12-07T02:04:43.505Z,9.50
2018-12-07T02:07:09.795Z,9.52
2018-12-07T02:09:36.099Z,9.52
2018-12-07T02:12:02.393Z,9.51
2018-12-07T02:14:28.726Z,9.48
2018-12-07T02:16:55.023Z,9.47
2018-12-07T02:19:21.319Z,9.49
2018-12-07T02:21:47.599Z,9.45
2018-12-07T02:24:13.903Z,9.44
2018-12-07T02:26:40.205Z,9.43
2018-12-07T02:29:06.494Z,9.26
2018-12-07T02:31:32.820Z,9.07
2018-12-07T02:33:59.126Z,8.97
2018-12-07T02:36:25.456Z,8.91
2018-12-07T02:38:51.759Z,9.12
2018-12-07T02:41:18.046Z,9.22
2018-12-07T02:43:44.349Z,9.25
2018-12-07T02:46:10.631Z,9.26
2018-12-07T02:48:36.929Z,9.28
2018-12-07T02:51:03.225Z,9.26
2018-12-07T02:53:29.555Z,9.23
2018-12-07T02:55:55.888Z,9.21
2018-12-07T02:58:22.188Z,9.17
2018-12-07T03:00:48.513Z,9.13
2018-12-07T03:03:14.821Z,9.10
2018-12-07T03:05:41.115Z,9.08
2018-12-07T03:08:07.407Z,9.04
2018-12-07T03:10:33.725Z,9.02
2018-12-07T03:13:00.027Z,9.00
2018-12-07T03:15:26.315Z,8.86
2018-12-07T03:17:52.622Z,8.74
2018-12-07T03:20:18.913Z,8.67
2018-12-07T03:22:45.208Z,8.73
2018-12-07T03:25:11.494Z,8.85
2018-12-07T03:27:37.788Z,8.93
2018-12-07T03:30:07.943Z,8.93
2018-12-07T03:32:34.257Z,8.91
2018-12-07T03:35:00.554Z,8.90
2018-12-07T03:37:26.847Z,8.91
2018-12-07T03:39:53.131Z,8.83
2018-12-07T03:42:19.447Z,8.82
2018-12-07T03:44:45.773Z,8.78
2018-12-07T03:47:12.097Z,8.78
2018-12-07T03:49:38.377Z,8.77
2018-12-07T03:52:04.685Z,8.76
2018-12-07T03:54:30.961Z,8.71
2018-12-07T03:56:57.268Z,8.69
2018-12-07T03:59:23.560Z,8.66
2018-12-07T04:01:49.867Z,8.50
2018-12-07T04:04:16.173Z,8.39
2018-12-07T04:06:42.479Z,8.30
2018-12-07T04:09:08.766Z,8.39
2018-12-07T04:11:35.066Z,8.51
2018-12-07T04:14:01.360Z,8.58
2018-12-07T04:16:27.692Z,8.59
2018-12-07T04:18:53.969Z,8.62
2018-12-07T04:21:20.334Z,8.66
2018-12-07T04:23:46.636Z,8.65
2018-12-07T04:26:13.013Z,8.60
2018-12-07T04:28:39.297Z,8.59
2018-12-07T04:31:05.611Z,8.58
2018-12-07T04:33:31.933Z,8.55
2018-12-07T04:35:58.245Z,8.52
2018-12-07T04:38:24.540Z,8.47
2018-12-07T04:40:50.828Z,8.45
2018-12-07T04:43:17.126Z,8.43
2018-12-07T04:45:43.430Z,8.39
2018-12-07T04:48:09.759Z,8.26
2018-12-07T04:50:36.017Z,8.14
2018-12-07T04:53:02.305Z,8.10
2018-12-07T04:55:28.596Z,8.22
2018-12-07T04:57:54.880Z,8.32
2018-12-07T05:00:21.199Z,8.37
2018-12-07T05:02:47.613Z,8.41
2018-12-07T05:05:13.943Z,8.41
2018-12-07T05:07:40.266Z,8.40
2018-12-07T05:10:06.568Z,8.38
2018-12-07T05:12:32.863Z,8.35
2018-12-07T05:14:59.154Z,8.33
2018-12-07T05:17:25.474Z,8.31
2018-12-07T05:19:51.805Z,8.30
2018-12-07T05:22:18.121Z,8.29
2018-12-07T05:24:44.438Z,8.25
2018-12-07T05:27:10.717Z,8.16
2018-12-07T05:29:37.047Z,8.25
2018-12-07T05:32:03.338Z,8.19
2018-12-07T05:34:29.638Z,8.05
2018-12-07T05:36:55.917Z,7.94
2018-12-07T05:39:22.220Z,7.92
2018-12-07T05:41:48.564Z,8.03
2018-12-07T05:44:14.857Z,8.38
2018-12-07T05:46:41.134Z,9.33
2018-12-07T05:49:07.446Z,9.93
2018-12-07T05:51:33.751Z,9.85
2018-12-07T05:54:00.062Z,9.60
2018-12-07T05:56:26.390Z,9.43
2018-12-07T05:58:52.683Z,9.31
2018-12-07T06:01:18.998Z,9.20
2018-12-07T06:03:45.320Z,9.12
2018-12-07T06:06:11.610Z,9.06
2018-12-07T06:08:37.964Z,9.03
2018-12-07T06:11:04.259Z,9.01
2018-12-07T06:13:30.595Z,9.02
2018-12-07T06:15:56.874Z,9.04
2018-12-07T06:18:23.175Z,8.95
2018-12-07T06:20:49.470Z,8.81
2018-12-07T06:23:15.750Z,8.83
2018-12-07T06:25:42.035Z,8.97
2018-12-07T06:28:08.342Z,9.28
2018-12-07T06:30:34.667Z,9.57
2018-12-07T06:33:00.974Z,9.81
2018-12-07T06:35:27.322Z,10.01
2018-12-07T06:37:53.619Z,10.16
2018-12-07T06:40:19.906Z,10.28
2018-12-07T06:42:46.210Z,10.43
2018-12-07T06:45:12.532Z,10.64
2018-12-07T06:47:38.831Z,10.89
2018-12-07T06:50:05.128Z,11.16
2018-12-07T06:52:31.429Z,11.27
2018-12-07T06:54:57.713Z,11.30
2018-12-07T06:57:24.013Z,11.43
2018-12-07T06:59:50.295Z,11.63
2018-12-07T07:02:16.608Z,11.86
2018-12-07T07:04:42.898Z,12.13
2018-12-07T07:07:09.193Z,12.39
2018-12-07T07:09:35.491Z,12.61
2018-12-07T07:12:01.789Z,12.78
2018-12-07T07:14:28.075Z,12.94
2018-12-07T07:16:54.386Z,13.14
2018-12-07T07:19:20.852Z,13.34
2018-12-07T07:21:47.110Z,13.53
2018-12-07T07:24:13.571Z,13.59
2018-12-07T07:26:39.882Z,13.48
2018-12-07T07:29:06.165Z,13.35
2018-12-07T07:31:32.514Z,13.48
2018-12-07T07:33:58.844Z,13.76
2018-12-07T07:36:25.179Z,14.06
2018-12-07T07:38:51.479Z,14.37
2018-12-07T07:41:17.872Z,14.65
2018-12-07T07:43:45.871Z,14.88
2018-12-07T07:46:10.427Z,15.11
2018-12-07T07:48:36.729Z,15.32
2018-12-07T07:51:03.012Z,15.54
2018-12-07T07:53:29.315Z,15.75
2018-12-07T07:55:55.619Z,15.74
2018-12-07T07:58:21.996Z,15.96
2018-12-07T08:00:48.294Z,16.09
2018-12-07T08:03:14.606Z,16.28
2018-12-07T08:05:40.921Z,16.41
2018-12-07T08:08:07.198Z,16.52
2018-12-07T08:10:33.550Z,16.58
2018-12-07T08:12:59.843Z,16.55
2018-12-07T08:15:26.130Z,16.59
2018-12-07T08:17:52.421Z,16.55
2018-12-07T08:20:18.723Z,16.46
2018-12-07T08:22:45.065Z,16.48
2018-12-07T08:25:11.358Z,16.54
2018-12-07T08:27:37.675Z,16.64
2018-12-07T08:30:05.977Z,16.75
2018-12-07T08:32:32.263Z,16.85
2018-12-07T08:34:58.577Z,16.94
2018-12-07T08:37:24.868Z,16.98
2018-12-07T08:39:51.167Z,17.00
2018-12-07T08:42:17.449Z,17.01
2018-12-07T08:44:43.800Z,17.00
2018-12-07T08:47:10.112Z,16.99
2018-12-07T08:49:36.412Z,16.93
2018-12-07T08:52:02.701Z,16.91
2018-12-07T08:54:28.990Z,16.94
2018-12-07T08:56:55.280Z,17.00
2018-12-07T08:59:21.582Z,17.09
2018-12-07T09:01:47.871Z,17.26
2018-12-07T09:04:14.167Z,17.49
2018-12-07T09:06:40.465Z,17.80
2018-12-07T09:09:06.765Z,18.12
2018-12-07T09:11:33.046Z,18.47
2018-12-07T09:13:59.365Z,18.80
2018-12-07T09:16:25.666Z,19.12
2018-12-07T09:18:51.952Z,19.38
2018-12-07T09:21:18.249Z,19.60
2018-12-07T09:23:49.545Z,19.64
2018-12-07T09:26:10.846Z,19.68
2018-12-07T09:28:37.156Z,19.93
2018-12-07T09:31:03.473Z,20.24
2018-12-07T09:33:29.769Z,20.51
2018-12-07T09:35:56.052Z,20.74
2018-12-07T09:38:22.376Z,20.93
2018-12-07T09:40:48.672Z,21.11
2018-12-07T09:43:14.961Z,21.10
2018-12-07T09:45:41.259Z,21.00
2018-12-07T09:48:07.557Z,20.97
2018-12-07T09:50:33.836Z,21.02
2018-12-07T09:53:00.145Z,21.25
2018-12-07T09:55:26.495Z,21.53
2018-12-07T09:57:52.825Z,21.77
2018-12-07T10:00:19.101Z,21.97
2018-12-07T10:02:45.401Z,21.93
2018-12-07T10:05:11.684Z,21.83
2018-12-07T10:07:37.991Z,21.79
2018-12-07T10:10:04.282Z,21.80
2018-12-07T10:12:30.624Z,21.85
2018-12-07T10:14:56.942Z,21.97
2018-12-07T10:17:23.282Z,22.22
2018-12-07T10:19:49.620Z,22.44
2018-12-07T10:22:15.917Z,22.61
2018-12-07T10:24:42.365Z,22.76
2018-12-07T10:27:08.617Z,22.77
2018-12-07T10:29:34.927Z,22.67
2018-12-07T10:32:01.244Z,22.59
2018-12-07T10:34:27.582Z,22.57
2018-12-07T10:36:53.875Z,22.57
2018-12-07T10:39:20.217Z,22.60
2018-12-07T10:41:46.524Z,22.67
2018-12-07T10:44:12.820Z,22.72
2018-12-07T10:46:39.178Z,22.74
2018-12-07T10:49:05.468Z,22.76
2018-12-07T10:51:31.769Z,22.90
2018-12-07T10:53:58.052Z,22.99
2018-12-07T10:56:24.393Z,23.05
2018-12-07T10:58:50.692Z,23.12
2018-12-07T11:01:16.983Z,23.19
2018-12-07T11:03:43.284Z,23.22
2018-12-07T11:06:09.594Z,23.25
2018-12-07T11:08:35.879Z,23.30
2018-12-07T11:11:02.196Z,23.31
2018-12-07T11:13:28.507Z,23.34
2018-12-07T11:15:54.833Z,23.37
2018-12-07T11:18:21.305Z,23.40
2018-12-07T11:20:47.686Z,23.42
2018-12-07T11:23:13.967Z,23.44
2018-12-07T11:25:40.277Z,23.47
2018-12-07T11:28:06.586Z,23.50
2018-12-07T11:30:32.923Z,23.45
2018-12-07T11:32:59.205Z,23.41
2018-12-07T11:35:25.517Z,23.34
2018-12-07T11:37:51.812Z,23.43
2018-12-07T11:40:18.108Z,23.50
2018-12-07T11:42:44.411Z,23.68
2018-12-07T11:45:10.708Z,23.83
2018-12-07T11:47:36.990Z,23.93
2018-12-07T11:50:03.296Z,24.02
2018-12-07T11:52:29.593Z,24.07
2018-12-07T11:54:55.891Z,24.17
2018-12-07T11:57:22.179Z,24.20
2018-12-07T11:59:48.502Z,24.07
2018-12-07T12:02:14.777Z,23.86
2018-12-07T12:04:41.086Z,23.67
2018-12-07T12:07:07.382Z,23.46
2018-12-07T12:09:33.676Z,23.25
2018-12-07T12:11:59.977Z,23.06
2018-12-07T12:14:26.265Z,22.88
2018-12-07T12:16:52.557Z,22.72
2018-12-07T12:19:18.862Z,22.63
2018-12-07T12:21:45.145Z,22.66
2018-12-07T12:24:11.443Z,22.75
2018-12-07T12:26:37.797Z,22.86
2018-12-07T12:29:04.096Z,22.93
2018-12-07T12:31:30.398Z,22.93
2018-12-07T12:33:56.709Z,22.92
2018-12-07T12:36:23.000Z,22.89
2018-12-07T12:38:49.276Z,22.79
2018-12-07T12:41:15.590Z,22.66
2018-12-07T12:43:41.914Z,22.51
2018-12-07T12:46:08.210Z,22.34
2018-12-07T12:48:34.503Z,22.16
2018-12-07T12:51:00.822Z,21.95
2018-12-07T12:53:27.168Z,21.76
2018-12-07T12:55:53.461Z,21.59
2018-12-07T12:58:19.766Z,21.43
2018-12-07T13:00:46.101Z,21.31
2018-12-07T13:03:12.439Z,21.20
2018-12-07T13:05:38.745Z,21.09
2018-12-07T13:08:05.065Z,20.95
2018-12-07T13:10:31.348Z,20.93
2018-12-07T13:12:57.650Z,20.93
2018-12-07T13:15:23.954Z,20.92
2018-12-07T13:17:50.239Z,20.92
2018-12-07T13:20:16.601Z,20.94
2018-12-07T13:22:42.990Z,20.94
2018-12-07T13:25:09.255Z,20.95
2018-12-07T13:27:35.550Z,20.98
2018-12-07T13:30:01.864Z,20.96
2018-12-07T13:32:28.148Z,20.96
2018-12-07T13:34:54.436Z,20.96
2018-12-07T13:37:20.746Z,20.97
2018-12-07T13:39:47.214Z,20.97
2018-12-07T13:42:13.354Z,20.99
2018-12-07T13:44:39.871Z,21.01
2018-12-07T13:47:06.198Z,20.95
2018-12-07T13:49:32.423Z,20.89
2018-12-07T13:51:58.558Z,20.83
2018-12-07T13:54:24.949Z,20.76
2018-12-07T13:56:51.315Z,20.65
2018-12-07T13:59:17.545Z,20.56
2018-12-07T14:01:43.910Z,20.44
2018-12-07T14:04:10.157Z,20.34
2018-12-07T14:06:36.594Z,20.19
2018-12-07T14:09:02.878Z,20.05
2018-12-07T14:11:29.061Z,19.93
2018-12-07T14:13:55.396Z,19.79
2018-12-07T14:16:21.674Z,19.64
2018-12-07T14:18:48.161Z,19.51
2018-12-07T14:21:14.283Z,19.42
2018-12-07T14:23:40.753Z,19.30
2018-12-07T14:26:06.900Z,19.18
2018-12-07T14:28:33.255Z,19.06
2018-12-07T14:30:59.517Z,18.94
2018-12-07T14:33:25.884Z,18.87
2018-12-07T14:35:52.245Z,18.83
2018-12-07T14:38:18.490Z,18.75
2018-12-07T14:40:44.853Z,18.67
2018-12-07T14:43:11.121Z,18.65
2018-12-07T14:45:37.311Z,18.60
2018-12-07T14:48:03.669Z,18.49
2018-12-07T14:50:29.866Z,18.40
2018-12-07T14:52:56.194Z,18.33
2018-12-07T14:55:22.818Z,18.24
2018-12-07T14:57:48.993Z,18.19
2018-12-07T15:00:15.136Z,18.10
2018-12-07T15:02:41.504Z,18.03
2018-12-07T15:05:07.896Z,17.96
2018-12-07T15:07:34.092Z,17.89
2018-12-07T15:10:00.496Z,17.81
2018-12-07T15:12:26.674Z,17.71
2018-12-07T15:14:53.037Z,17.63
2018-12-07T15:17:19.732Z,17.53
2018-12-07T15:19:46.191Z,17.45
2018-12-07T15:24:38.422Z,17.31
2018-12-07T15:27:04.731Z,17.27
2018-12-07T15:29:31.329Z,17.20
2018-12-07T15:31:57.354Z,17.13
2018-12-07T15:34:23.808Z,17.05
2018-12-07T15:36:49.920Z,17.01
2018-12-07T15:39:16.302Z,16.91
2018-12-07T15:41:42.613Z,16.88
2018-12-07T15:44:08.945Z,16.82
2018-12-07T15:46:35.214Z,16.76
2018-12-07T15:49:01.571Z,16.70
2018-12-07T15:51:27.979Z,16.66
2018-12-07T15:53:54.242Z,16.63
2018-12-07T15:56:20.730Z,16.53
2018-12-07T15:58:46.785Z,16.48
2018-12-07T16:01:13.076Z,16.42
2018-12-07T16:03:39.279Z,16.27
2018-12-07T16:06:05.652Z,16.21
2018-12-07T16:08:32.125Z,16.21
2018-12-07T16:10:58.210Z,16.17
2018-12-07T16:13:25.104Z,16.12
2018-12-07T16:15:51.414Z,16.10
2018-12-07T16:18:17.607Z,16.07
2018-12-07T16:20:43.882Z,16.00
2018-12-07T16:23:10.157Z,15.98
2018-12-07T16:25:36.455Z,15.94
2018-12-07T16:28:02.870Z,15.93
2018-12-07T16:30:29.068Z,15.89
2018-12-07T16:32:55.366Z,15.85
2018-12-07T16:35:21.714Z,15.79
2018-12-07T16:37:48.194Z,15.74
2018-12-07T16:40:14.329Z,15.70
2018-12-07T16:42:40.598Z,15.66
2018-12-07T16:45:06.928Z,15.65
2018-12-07T16:47:33.307Z,15.64
2018-12-07T16:49:59.521Z,15.63
2018-12-07T16:52:25.747Z,15.59
2018-12-07T16:54:52.111Z,15.54
2018-12-07T16:57:18.417Z,15.46
2018-12-07T16:59:44.687Z,15.44
2018-12-07T17:02:11.165Z,15.40
2018-12-07T17:04:37.408Z,15.36
2018-12-07T17:07:03.779Z,15.29
2018-12-07T17:09:29.884Z,15.19
2018-12-07T17:11:56.251Z,15.18
2018-12-07T17:14:22.637Z,15.20
2018-12-07T17:16:48.823Z,15.23
2018-12-07T17:19:15.073Z,15.19
2018-12-07T17:21:41.344Z,15.15
2018-12-07T17:24:07.653Z,15.15
2018-12-07T17:26:34.202Z,15.13
2018-12-07T17:29:00.429Z,15.09
2018-12-07T17:31:26.817Z,15.20
2018-12-07T17:33:53.018Z,15.27
2018-12-07T17:36:19.384Z,15.18
2018-12-07T17:38:45.847Z,15.15
2018-12-07T17:41:12.052Z,15.14
2018-12-07T17:43:38.258Z,15.07
2018-12-07T17:46:04.457Z,15.04
2018-12-07T17:48:30.869Z,15.04
2018-12-07T17:50:57.167Z,15.00
2018-12-07T17:53:23.353Z,14.94
2018-12-07T17:55:49.654Z,14.94
2018-12-07T17:58:16.142Z,14.43
2018-12-07T18:00:42.258Z,13.88
2018-12-07T18:03:08.553Z,14.22
2018-12-07T18:05:34.856Z,14.46
2018-12-07T18:08:01.171Z,14.54
2018-12-07T18:10:27.720Z,14.52
2018-12-07T18:12:53.755Z,14.50
2018-12-07T18:15:20.076Z,14.45
2018-12-07T18:17:46.689Z,14.41
2018-12-07T18:20:12.971Z,14.36
2018-12-07T18:22:38.946Z,14.32
2018-12-07T18:25:05.233Z,14.27
2018-12-07T18:27:31.551Z,14.20
2018-12-07T18:29:57.997Z,14.12
2018-12-07T18:32:24.213Z,14.09
2018-12-07T18:34:50.565Z,14.03
2018-12-07T18:37:17.037Z,13.96
2018-12-07T18:39:43.116Z,13.90
2018-12-07T18:42:09.467Z,13.88
2018-12-07T18:44:35.808Z,13.81
2018-12-07T18:47:02.109Z,13.79
2018-12-07T18:49:28.411Z,13.73
2018-12-07T18:51:54.678Z,13.68
2018-12-07T18:54:20.917Z,13.65
2018-12-07T18:56:47.368Z,13.58
2018-12-07T18:59:13.535Z,13.55
2018-12-07T19:01:39.989Z,13.51
2018-12-07T19:04:06.395Z,13.49
2018-12-07T19:06:32.493Z,13.44
2018-12-07T19:08:58.805Z,13.41
2018-12-07T19:11:25.064Z,13.37
2018-12-07T19:13:51.509Z,13.29
2018-12-07T19:16:17.722Z,13.31
2018-12-07T19:18:43.883Z,13.28
2018-12-07T19:21:10.329Z,13.24
2018-12-07T19:23:36.678Z,13.18
2018-12-07T19:26:03.094Z,13.18
2018-12-07T19:28:29.056Z,13.13
2018-12-07T19:30:55.452Z,13.10
2018-12-07T19:33:21.839Z,13.04
2018-12-07T19:35:47.980Z,12.99
2018-12-07T19:38:14.360Z,12.96
2018-12-07T19:40:40.679Z,12.93
2018-12-07T19:43:07.156Z,12.91
2018-12-07T19:45:33.346Z,12.87
2018-12-07T19:47:59.717Z,12.82
2018-12-07T19:50:26.050Z,12.75
2018-12-07T19:52:52.524Z,12.72
2018-12-07T19:55:18.635Z,12.70
2018-12-07T19:57:44.981Z,12.69
2018-12-07T20:00:11.573Z,12.66
2018-12-07T20:02:37.542Z,12.67
2018-12-07T20:05:03.844Z,12.67
2018-12-07T20:07:30.232Z,12.61
2018-12-07T20:09:56.629Z,12.59
2018-12-07T20:12:22.711Z,12.88
2018-12-07T20:14:49.006Z,12.92
2018-12-07T20:17:15.313Z,13.14
2018-12-07T20:19:41.619Z,13.06
2018-12-07T20:22:07.895Z,12.89
2018-12-07T20:24:34.801Z,12.76
2018-12-07T20:27:01.062Z,12.65
2018-12-07T20:29:27.232Z,12.56
2018-12-07T20:31:53.507Z,12.49
2018-12-07T20:34:19.859Z,12.44
2018-12-07T20:36:46.242Z,12.41
2018-12-07T20:39:12.485Z,12.33
2018-12-07T20:41:38.954Z,12.30
2018-12-07T20:44:05.278Z,12.25
2018-12-07T20:46:31.312Z,12.20
2018-12-07T20:48:57.643Z,12.19
2018-12-07T20:51:26.226Z,12.13
2018-12-07T20:53:50.293Z,12.10
2018-12-07T20:56:16.507Z,12.08
2018-12-07T20:58:42.880Z,12.03
2018-12-07T21:01:09.151Z,12.00
2018-12-07T21:03:35.387Z,11.97
2018-12-07T21:06:01.950Z,11.92
2018-12-07T21:08:28.213Z,11.90
2018-12-07T21:10:54.410Z,11.87
2018-12-07T21:13:20.624Z,11.82
2018-12-07T21:15:46.942Z,11.81
2018-12-07T21:18:13.436Z,11.79
2018-12-07T21:20:39.553Z,11.77
2018-12-07T21:23:06.057Z,11.73
2018-12-07T21:25:32.291Z,11.69
2018-12-07T21:27:58.719Z,11.68
2018-12-07T21:30:24.798Z,11.66
2018-12-07T21:32:51.385Z,11.62
2018-12-07T21:35:17.560Z,11.59
2018-12-07T21:37:44.011Z,11.55
2018-12-07T21:40:10.098Z,11.51
2018-12-07T21:42:36.555Z,11.47
2018-12-07T21:45:02.821Z,11.46
2018-12-07T21:47:29.235Z,11.42
2018-12-07T21:49:55.581Z,11.38
2018-12-07T21:52:21.600Z,11.34
2018-12-07T21:54:48.100Z,11.34
2018-12-07T21:57:14.181Z,11.31
2018-12-07T21:59:40.441Z,11.28
2018-12-07T22:02:06.802Z,11.26
2018-12-07T22:04:33.043Z,11.21
2018-12-07T22:06:59.394Z,11.20
2018-12-07T22:09:25.665Z,11.17
2018-12-07T22:11:52.238Z,11.15
2018-12-07T22:14:18.637Z,11.12
2018-12-07T22:16:44.852Z,11.10
2018-12-07T22:19:11.132Z,11.09
2018-12-07T22:21:37.472Z,11.04
2018-12-07T22:24:04.128Z,11.01
2018-12-07T22:26:30.178Z,10.97
2018-12-07T22:28:56.465Z,10.94
2018-12-07T22:31:23.021Z,10.89
2018-12-07T22:33:49.269Z,10.86
2018-12-07T22:36:15.451Z,10.85
2018-12-07T22:38:41.875Z,10.81
2018-12-07T22:41:08.359Z,10.81
2018-12-07T22:43:34.483Z,10.80
2018-12-07T22:46:00.971Z,10.79
2018-12-07T22:48:27.581Z,10.71
2018-12-07T22:50:53.846Z,10.72
2018-12-07T22:53:20.152Z,10.70
2018-12-07T22:55:46.476Z,10.66
2018-12-07T22:58:12.770Z,10.66
2018-12-07T23:00:39.095Z,10.63
2018-12-07T23:03:05.409Z,10.61
2018-12-07T23:05:31.728Z,10.62
2018-12-07T23:07:58.076Z,10.60
2018-12-07T23:10:24.371Z,10.58
2018-12-07T23:12:50.727Z,10.55
2018-12-07T23:15:17.029Z,10.50
2018-12-07T23:17:43.319Z,10.50
2018-12-07T23:20:09.651Z,10.50
2018-12-07T23:22:35.944Z,10.47
2018-12-07T23:25:02.379Z,10.46
2018-12-07T23:27:28.627Z,10.42
2018-12-07T23:29:54.975Z,10.39
2018-12-07T23:32:21.325Z,10.38
2018-12-07T23:34:47.625Z,10.38
2018-12-07T23:37:13.939Z,10.36
2018-12-07T23:39:40.233Z,10.33
2018-12-07T23:42:06.544Z,10.32
2018-12-07T23:44:32.832Z,10.30
2018-12-07T23:46:59.239Z,10.28
2018-12-07T23:49:25.536Z,10.27
2018-12-07T23:51:51.846Z,10.24
2018-12-07T23:54:18.151Z,10.22
2018-12-07T23:56:44.455Z,10.20
2018-12-07T23:59:10.763Z,10.17
